sensor_id;sensor_type;location;lat;lon;timestamp;P1;durP1;ratioP1;P2;durP2;ratioP2
34565;SDS011;20803;42.676;26.348;2022-11-15T00:01:25;31.33;;;15.97;;
34565;SDS011;20803;42.676;26.348;2022-11-15T00:03:50;28.87;;;15.73;;
34565;SDS011;20803;42.676;26.348;2022-11-15T00:06:16;26.83;;;15.57;;
34565;SDS011;20803;42.676;26.348;2022-11-15T00:08:42;32.50;;;18.20;;
34565;SDS011;20803;42.676;26.348;2022-11-15T00:11:08;30.77;;;15.67;;
34565;SDS011;20803;42.676;26.348;2022-11-15T00:13:35;32.73;;;16.37;;
34565;SDS011;20803;42.676;26.348;2022-11-15T00:16:00;29.17;;;16.03;;
34565;SDS011;20803;42.676;26.348;2022-11-15T00:18:26;28.27;;;14.70;;
34565;SDS011;20803;42.676;26.348;2022-11-15T00:20:53;34.60;;;17.00;;
34565;SDS011;20803;42.676;26.348;2022-11-15T00:23:18;29.43;;;16.47;;
34565;SDS011;20803;42.676;26.348;2022-11-15T00:25:43;30.03;;;15.93;;
34565;SDS011;20803;42.676;26.348;2022-11-15T00:28:09;27.83;;;15.70;;
34565;SDS011;20803;42.676;26.348;2022-11-15T00:30:34;32.90;;;17.70;;
34565;SDS011;20803;42.676;26.348;2022-11-15T00:33:03;28.83;;;15.50;;
34565;SDS011;20803;42.676;26.348;2022-11-15T00:35:31;27.73;;;16.47;;
34565;SDS011;20803;42.676;26.348;2022-11-15T00:37:58;31.60;;;17.43;;
34565;SDS011;20803;42.676;26.348;2022-11-15T00:40:24;25.03;;;14.87;;
34565;SDS011;20803;42.676;26.348;2022-11-15T00:42:49;25.63;;;15.13;;
34565;SDS011;20803;42.676;26.348;2022-11-15T00:45:15;31.87;;;15.60;;
34565;SDS011;20803;42.676;26.348;2022-11-15T00:47:40;25.87;;;14.73;;
34565;SDS011;20803;42.676;26.348;2022-11-15T00:50:08;32.00;;;16.87;;
34565;SDS011;20803;42.676;26.348;2022-11-15T00:52:34;34.03;;;17.13;;
34565;SDS011;20803;42.676;26.348;2022-11-15T00:54:59;28.23;;;15.93;;
34565;SDS011;20803;42.676;26.348;2022-11-15T00:57:24;26.97;;;14.60;;
34565;SDS011;20803;42.676;26.348;2022-11-15T00:59:50;32.63;;;15.93;;
34565;SDS011;20803;42.676;26.348;2022-11-15T01:02:15;27.87;;;15.47;;
34565;SDS011;20803;42.676;26.348;2022-11-15T01:04:40;28.10;;;15.40;;
34565;SDS011;20803;42.676;26.348;2022-11-15T01:07:06;26.87;;;16.07;;
34565;SDS011;20803;42.676;26.348;2022-11-15T01:09:31;30.57;;;16.33;;
34565;SDS011;20803;42.676;26.348;2022-11-15T01:11:57;27.57;;;15.80;;
34565;SDS011;20803;42.676;26.348;2022-11-15T01:14:22;32.10;;;15.40;;
34565;SDS011;20803;42.676;26.348;2022-11-15T01:16:47;31.20;;;17.50;;
34565;SDS011;20803;42.676;26.348;2022-11-15T01:19:13;28.93;;;14.83;;
34565;SDS011;20803;42.676;26.348;2022-11-15T01:21:38;30.27;;;15.53;;
34565;SDS011;20803;42.676;26.348;2022-11-15T01:24:04;29.03;;;15.70;;
34565;SDS011;20803;42.676;26.348;2022-11-15T01:26:29;27.30;;;15.47;;
34565;SDS011;20803;42.676;26.348;2022-11-15T01:28:55;27.43;;;15.80;;
34565;SDS011;20803;42.676;26.348;2022-11-15T01:31:20;29.03;;;15.37;;
34565;SDS011;20803;42.676;26.348;2022-11-15T01:33:47;32.37;;;15.60;;
34565;SDS011;20803;42.676;26.348;2022-11-15T01:36:14;29.30;;;15.80;;
34565;SDS011;20803;42.676;26.348;2022-11-15T01:38:41;27.33;;;15.10;;
34565;SDS011;20803;42.676;26.348;2022-11-15T01:41:13;26.07;;;13.97;;
34565;SDS011;20803;42.676;26.348;2022-11-15T01:43:41;29.30;;;15.60;;
34565;SDS011;20803;42.676;26.348;2022-11-15T01:46:12;24.03;;;14.27;;
34565;SDS011;20803;42.676;26.348;2022-11-15T01:48:47;28.90;;;14.63;;
34565;SDS011;20803;42.676;26.348;2022-11-15T01:51:15;28.90;;;15.13;;
34565;SDS011;20803;42.676;26.348;2022-11-15T01:53:44;30.80;;;15.23;;
34565;SDS011;20803;42.676;26.348;2022-11-15T01:56:17;30.13;;;15.77;;
34565;SDS011;20803;42.676;26.348;2022-11-15T01:58:47;29.53;;;15.33;;
34565;SDS011;20803;42.676;26.348;2022-11-15T02:01:14;29.93;;;16.00;;
34565;SDS011;20803;42.676;26.348;2022-11-15T02:03:41;28.67;;;14.73;;
34565;SDS011;20803;42.676;26.348;2022-11-15T02:06:15;27.77;;;14.70;;
34565;SDS011;20803;42.676;26.348;2022-11-15T02:08:41;28.67;;;15.97;;
34565;SDS011;20803;42.676;26.348;2022-11-15T02:11:08;31.63;;;16.80;;
34565;SDS011;20803;42.676;26.348;2022-11-15T02:13:34;37.60;;;17.50;;
34565;SDS011;20803;42.676;26.348;2022-11-15T02:18:48;31.47;;;17.07;;
34565;SDS011;20803;42.676;26.348;2022-11-15T02:32:03;29.33;;;16.43;;
34565;SDS011;20803;42.676;26.348;2022-11-15T02:37:45;33.57;;;16.80;;
34565;SDS011;20803;42.676;26.348;2022-11-15T02:42:54;27.23;;;16.10;;
34565;SDS011;20803;42.676;26.348;2022-11-15T02:45:51;28.40;;;15.30;;
34565;SDS011;20803;42.676;26.348;2022-11-15T02:48:25;25.53;;;15.27;;
34565;SDS011;20803;42.676;26.348;2022-11-15T02:50:51;32.77;;;15.33;;
34565;SDS011;20803;42.676;26.348;2022-11-15T02:53:17;29.67;;;15.97;;
34565;SDS011;20803;42.676;26.348;2022-11-15T02:55:49;31.17;;;15.57;;
34565;SDS011;20803;42.676;26.348;2022-11-15T03:03:39;31.50;;;16.40;;
34565;SDS011;20803;42.676;26.348;2022-11-15T03:06:27;33.30;;;14.40;;
34565;SDS011;20803;42.676;26.348;2022-11-15T03:11:53;32.97;;;16.70;;
34565;SDS011;20803;42.676;26.348;2022-11-15T03:17:36;30.40;;;16.03;;
34565;SDS011;20803;42.676;26.348;2022-11-15T03:20:08;31.80;;;16.83;;
34565;SDS011;20803;42.676;26.348;2022-11-15T03:22:37;34.60;;;16.97;;
34565;SDS011;20803;42.676;26.348;2022-11-15T03:25:09;34.33;;;17.27;;
34565;SDS011;20803;42.676;26.348;2022-11-15T03:27:40;36.70;;;18.57;;
34565;SDS011;20803;42.676;26.348;2022-11-15T03:30:09;35.43;;;17.53;;
34565;SDS011;20803;42.676;26.348;2022-11-15T03:32:49;31.67;;;17.87;;
34565;SDS011;20803;42.676;26.348;2022-11-15T03:35:19;44.37;;;18.43;;
34565;SDS011;20803;42.676;26.348;2022-11-15T03:37:52;31.10;;;17.57;;
34565;SDS011;20803;42.676;26.348;2022-11-15T03:40:19;42.50;;;20.27;;
34565;SDS011;20803;42.676;26.348;2022-11-15T03:42:57;37.70;;;19.07;;
34565;SDS011;20803;42.676;26.348;2022-11-15T03:45:39;36.37;;;17.43;;
34565;SDS011;20803;42.676;26.348;2022-11-15T03:48:10;33.17;;;18.00;;
34565;SDS011;20803;42.676;26.348;2022-11-15T03:50:49;34.57;;;17.17;;
34565;SDS011;20803;42.676;26.348;2022-11-15T03:53:15;38.13;;;17.43;;
34565;SDS011;20803;42.676;26.348;2022-11-15T03:55:40;38.17;;;18.20;;
34565;SDS011;20803;42.676;26.348;2022-11-15T03:58:06;38.07;;;18.63;;
34565;SDS011;20803;42.676;26.348;2022-11-15T04:00:32;40.90;;;18.77;;
34565;SDS011;20803;42.676;26.348;2022-11-15T04:02:57;36.57;;;18.00;;
34565;SDS011;20803;42.676;26.348;2022-11-15T04:05:23;42.50;;;19.43;;
34565;SDS011;20803;42.676;26.348;2022-11-15T04:07:49;41.67;;;19.80;;
34565;SDS011;20803;42.676;26.348;2022-11-15T04:10:14;39.83;;;19.83;;
34565;SDS011;20803;42.676;26.348;2022-11-15T04:12:41;38.07;;;19.17;;
34565;SDS011;20803;42.676;26.348;2022-11-15T04:15:12;37.87;;;18.53;;
34565;SDS011;20803;42.676;26.348;2022-11-15T04:17:43;37.20;;;18.60;;
34565;SDS011;20803;42.676;26.348;2022-11-15T04:20:13;44.27;;;18.60;;
34565;SDS011;20803;42.676;26.348;2022-11-15T04:23:03;42.17;;;17.93;;
34565;SDS011;20803;42.676;26.348;2022-11-15T04:25:49;38.43;;;18.60;;
34565;SDS011;20803;42.676;26.348;2022-11-15T04:28:16;38.00;;;17.57;;
34565;SDS011;20803;42.676;26.348;2022-11-15T04:30:42;40.10;;;19.97;;
34565;SDS011;20803;42.676;26.348;2022-11-15T04:33:08;41.00;;;18.83;;
34565;SDS011;20803;42.676;26.348;2022-11-15T04:35:33;39.33;;;18.50;;
34565;SDS011;20803;42.676;26.348;2022-11-15T04:37:59;37.43;;;19.70;;
34565;SDS011;20803;42.676;26.348;2022-11-15T04:40:24;41.00;;;19.43;;
34565;SDS011;20803;42.676;26.348;2022-11-15T04:42:50;44.10;;;19.13;;
34565;SDS011;20803;42.676;26.348;2022-11-15T04:45:15;40.67;;;18.93;;
34565;SDS011;20803;42.676;26.348;2022-11-15T04:47:42;40.67;;;19.30;;
34565;SDS011;20803;42.676;26.348;2022-11-15T04:50:10;39.43;;;17.47;;
34565;SDS011;20803;42.676;26.348;2022-11-15T04:52:38;40.17;;;18.00;;
34565;SDS011;20803;42.676;26.348;2022-11-15T04:55:24;42.57;;;19.20;;
34565;SDS011;20803;42.676;26.348;2022-11-15T04:57:56;37.70;;;17.13;;
34565;SDS011;20803;42.676;26.348;2022-11-15T05:00:23;37.20;;;17.90;;
34565;SDS011;20803;42.676;26.348;2022-11-15T05:02:49;37.90;;;18.30;;
34565;SDS011;20803;42.676;26.348;2022-11-15T05:05:32;41.73;;;18.23;;
34565;SDS011;20803;42.676;26.348;2022-11-15T05:07:58;43.17;;;19.40;;
34565;SDS011;20803;42.676;26.348;2022-11-15T05:10:23;42.10;;;18.47;;
34565;SDS011;20803;42.676;26.348;2022-11-15T05:12:49;44.43;;;20.47;;
34565;SDS011;20803;42.676;26.348;2022-11-15T05:15:14;45.77;;;20.37;;
34565;SDS011;20803;42.676;26.348;2022-11-15T05:17:40;47.20;;;19.83;;
34565;SDS011;20803;42.676;26.348;2022-11-15T05:20:05;39.67;;;18.83;;
34565;SDS011;20803;42.676;26.348;2022-11-15T05:22:31;36.53;;;19.10;;
34565;SDS011;20803;42.676;26.348;2022-11-15T05:24:57;38.67;;;20.33;;
34565;SDS011;20803;42.676;26.348;2022-11-15T05:27:22;41.73;;;19.17;;
34565;SDS011;20803;42.676;26.348;2022-11-15T05:29:47;44.10;;;19.57;;
34565;SDS011;20803;42.676;26.348;2022-11-15T05:32:13;38.30;;;17.77;;
34565;SDS011;20803;42.676;26.348;2022-11-15T05:34:38;34.20;;;17.93;;
34565;SDS011;20803;42.676;26.348;2022-11-15T05:37:04;40.27;;;18.73;;
34565;SDS011;20803;42.676;26.348;2022-11-15T05:39:30;32.70;;;16.50;;
34565;SDS011;20803;42.676;26.348;2022-11-15T05:42:28;40.53;;;16.63;;
34565;SDS011;20803;42.676;26.348;2022-11-15T05:44:48;35.57;;;16.77;;
34565;SDS011;20803;42.676;26.348;2022-11-15T05:47:16;38.83;;;17.70;;
34565;SDS011;20803;42.676;26.348;2022-11-15T05:49:48;35.97;;;17.70;;
34565;SDS011;20803;42.676;26.348;2022-11-15T05:52:17;39.93;;;17.67;;
34565;SDS011;20803;42.676;26.348;2022-11-15T05:54:47;36.33;;;18.23;;
34565;SDS011;20803;42.676;26.348;2022-11-15T05:57:13;39.33;;;19.10;;
34565;SDS011;20803;42.676;26.348;2022-11-15T05:59:39;41.57;;;19.30;;
34565;SDS011;20803;42.676;26.348;2022-11-15T06:02:06;40.93;;;17.60;;
34565;SDS011;20803;42.676;26.348;2022-11-15T06:04:31;41.87;;;18.70;;
34565;SDS011;20803;42.676;26.348;2022-11-15T06:06:58;38.60;;;18.00;;
34565;SDS011;20803;42.676;26.348;2022-11-15T06:09:24;39.30;;;17.67;;
34565;SDS011;20803;42.676;26.348;2022-11-15T06:11:49;41.00;;;18.20;;
34565;SDS011;20803;42.676;26.348;2022-11-15T06:14:15;38.80;;;17.47;;
34565;SDS011;20803;42.676;26.348;2022-11-15T06:16:40;39.87;;;18.80;;
34565;SDS011;20803;42.676;26.348;2022-11-15T06:19:06;40.80;;;18.20;;
34565;SDS011;20803;42.676;26.348;2022-11-15T06:21:32;42.87;;;20.83;;
34565;SDS011;20803;42.676;26.348;2022-11-15T06:23:57;45.00;;;19.03;;
34565;SDS011;20803;42.676;26.348;2022-11-15T06:26:23;38.73;;;18.37;;
34565;SDS011;20803;42.676;26.348;2022-11-15T06:28:49;36.50;;;18.67;;
34565;SDS011;20803;42.676;26.348;2022-11-15T06:31:14;44.90;;;18.73;;
34565;SDS011;20803;42.676;26.348;2022-11-15T06:33:39;41.17;;;18.30;;
34565;SDS011;20803;42.676;26.348;2022-11-15T06:36:06;40.27;;;18.27;;
34565;SDS011;20803;42.676;26.348;2022-11-15T06:38:33;40.17;;;17.93;;
34565;SDS011;20803;42.676;26.348;2022-11-15T06:41:03;37.23;;;18.50;;
34565;SDS011;20803;42.676;26.348;2022-11-15T06:43:31;41.60;;;17.53;;
34565;SDS011;20803;42.676;26.348;2022-11-15T06:45:59;40.97;;;17.80;;
34565;SDS011;20803;42.676;26.348;2022-11-15T06:48:26;39.57;;;19.30;;
34565;SDS011;20803;42.676;26.348;2022-11-15T06:50:55;42.67;;;19.50;;
34565;SDS011;20803;42.676;26.348;2022-11-15T06:53:22;41.33;;;18.53;;
34565;SDS011;20803;42.676;26.348;2022-11-15T06:55:48;35.13;;;17.40;;
34565;SDS011;20803;42.676;26.348;2022-11-15T06:58:14;42.90;;;18.03;;
34565;SDS011;20803;42.676;26.348;2022-11-15T07:00:40;41.27;;;17.70;;
34565;SDS011;20803;42.676;26.348;2022-11-15T07:03:05;40.23;;;17.57;;
34565;SDS011;20803;42.676;26.348;2022-11-15T07:05:31;38.43;;;16.10;;
34565;SDS011;20803;42.676;26.348;2022-11-15T07:07:56;36.00;;;17.60;;
34565;SDS011;20803;42.676;26.348;2022-11-15T07:10:22;36.33;;;17.30;;
34565;SDS011;20803;42.676;26.348;2022-11-15T07:12:50;40.03;;;17.30;;
34565;SDS011;20803;42.676;26.348;2022-11-15T07:15:16;32.87;;;15.83;;
34565;SDS011;20803;42.676;26.348;2022-11-15T07:17:43;33.33;;;16.67;;
34565;SDS011;20803;42.676;26.348;2022-11-15T07:20:08;41.33;;;17.00;;
34565;SDS011;20803;42.676;26.348;2022-11-15T07:22:34;34.30;;;16.83;;
34565;SDS011;20803;42.676;26.348;2022-11-15T07:25:00;40.27;;;18.27;;
34565;SDS011;20803;42.676;26.348;2022-11-15T07:27:25;35.00;;;16.80;;
34565;SDS011;20803;42.676;26.348;2022-11-15T07:29:51;34.63;;;16.03;;
34565;SDS011;20803;42.676;26.348;2022-11-15T07:32:16;42.53;;;16.73;;
34565;SDS011;20803;42.676;26.348;2022-11-15T07:34:41;40.77;;;18.83;;
34565;SDS011;20803;42.676;26.348;2022-11-15T07:37:07;39.60;;;18.20;;
34565;SDS011;20803;42.676;26.348;2022-11-15T07:39:32;44.27;;;19.03;;
34565;SDS011;20803;42.676;26.348;2022-11-15T07:41:58;33.73;;;16.93;;
34565;SDS011;20803;42.676;26.348;2022-11-15T07:44:43;36.50;;;16.80;;
34565;SDS011;20803;42.676;26.348;2022-11-15T07:47:08;29.07;;;15.13;;
34565;SDS011;20803;42.676;26.348;2022-11-15T07:49:34;31.77;;;16.10;;
34565;SDS011;20803;42.676;26.348;2022-11-15T07:51:59;38.47;;;18.60;;
34565;SDS011;20803;42.676;26.348;2022-11-15T07:54:25;33.93;;;16.63;;
34565;SDS011;20803;42.676;26.348;2022-11-15T07:56:50;35.37;;;17.47;;
34565;SDS011;20803;42.676;26.348;2022-11-15T07:59:16;34.87;;;17.10;;
34565;SDS011;20803;42.676;26.348;2022-11-15T08:01:41;32.17;;;16.13;;
34565;SDS011;20803;42.676;26.348;2022-11-15T08:04:06;33.00;;;16.57;;
34565;SDS011;20803;42.676;26.348;2022-11-15T08:06:32;34.30;;;16.73;;
34565;SDS011;20803;42.676;26.348;2022-11-15T08:08:57;38.27;;;17.53;;
34565;SDS011;20803;42.676;26.348;2022-11-15T08:11:22;39.00;;;16.70;;
34565;SDS011;20803;42.676;26.348;2022-11-15T08:13:48;34.10;;;17.13;;
34565;SDS011;20803;42.676;26.348;2022-11-15T08:16:13;32.23;;;16.40;;
34565;SDS011;20803;42.676;26.348;2022-11-15T08:18:39;34.50;;;16.47;;
34565;SDS011;20803;42.676;26.348;2022-11-15T08:21:04;33.60;;;17.23;;
34565;SDS011;20803;42.676;26.348;2022-11-15T08:23:30;34.73;;;16.27;;
34565;SDS011;20803;42.676;26.348;2022-11-15T08:26:03;37.03;;;16.87;;
34565;SDS011;20803;42.676;26.348;2022-11-15T08:28:29;34.43;;;15.47;;
34565;SDS011;20803;42.676;26.348;2022-11-15T08:30:55;30.63;;;14.63;;
34565;SDS011;20803;42.676;26.348;2022-11-15T08:33:21;32.60;;;15.90;;
34565;SDS011;20803;42.676;26.348;2022-11-15T08:35:46;37.40;;;17.33;;
34565;SDS011;20803;42.676;26.348;2022-11-15T08:38:13;34.27;;;17.17;;
34565;SDS011;20803;42.676;26.348;2022-11-15T08:40:39;29.57;;;15.90;;
34565;SDS011;20803;42.676;26.348;2022-11-15T08:43:05;33.27;;;14.97;;
34565;SDS011;20803;42.676;26.348;2022-11-15T08:45:31;38.43;;;17.00;;
34565;SDS011;20803;42.676;26.348;2022-11-15T08:48:00;33.87;;;17.97;;
34565;SDS011;20803;42.676;26.348;2022-11-15T08:50:26;35.30;;;16.33;;
34565;SDS011;20803;42.676;26.348;2022-11-15T08:52:51;34.30;;;16.83;;
34565;SDS011;20803;42.676;26.348;2022-11-15T08:55:17;39.07;;;18.30;;
34565;SDS011;20803;42.676;26.348;2022-11-15T08:57:42;30.27;;;15.90;;
34565;SDS011;20803;42.676;26.348;2022-11-15T09:00:08;28.97;;;15.37;;
34565;SDS011;20803;42.676;26.348;2022-11-15T09:02:34;28.40;;;15.33;;
34565;SDS011;20803;42.676;26.348;2022-11-15T09:04:59;30.77;;;15.87;;
34565;SDS011;20803;42.676;26.348;2022-11-15T09:07:25;32.27;;;16.90;;
34565;SDS011;20803;42.676;26.348;2022-11-15T09:09:50;35.47;;;16.90;;
34565;SDS011;20803;42.676;26.348;2022-11-15T09:12:15;37.47;;;17.20;;
34565;SDS011;20803;42.676;26.348;2022-11-15T09:14:41;32.00;;;16.00;;
34565;SDS011;20803;42.676;26.348;2022-11-15T09:17:07;29.23;;;16.20;;
34565;SDS011;20803;42.676;26.348;2022-11-15T09:19:33;30.20;;;15.70;;
34565;SDS011;20803;42.676;26.348;2022-11-15T09:21:59;32.97;;;15.57;;
34565;SDS011;20803;42.676;26.348;2022-11-15T09:24:24;29.20;;;15.27;;
34565;SDS011;20803;42.676;26.348;2022-11-15T09:26:50;29.43;;;15.90;;
34565;SDS011;20803;42.676;26.348;2022-11-15T09:29:16;32.13;;;15.30;;
34565;SDS011;20803;42.676;26.348;2022-11-15T09:31:42;27.73;;;15.90;;
34565;SDS011;20803;42.676;26.348;2022-11-15T09:34:08;33.10;;;17.03;;
34565;SDS011;20803;42.676;26.348;2022-11-15T09:36:33;39.43;;;16.63;;
34565;SDS011;20803;42.676;26.348;2022-11-15T09:38:59;36.67;;;16.57;;
34565;SDS011;20803;42.676;26.348;2022-11-15T09:47:24;30.93;;;17.53;;
34565;SDS011;20803;42.676;26.348;2022-11-15T09:50:08;34.97;;;17.83;;
34565;SDS011;20803;42.676;26.348;2022-11-15T09:52:36;33.23;;;16.87;;
34565;SDS011;20803;42.676;26.348;2022-11-15T09:55:07;34.93;;;16.73;;
34565;SDS011;20803;42.676;26.348;2022-11-15T09:57:45;37.37;;;16.80;;
34565;SDS011;20803;42.676;26.348;2022-11-15T10:05:33;34.97;;;16.83;;
34565;SDS011;20803;42.676;26.348;2022-11-15T10:11:05;36.07;;;17.87;;
34565;SDS011;20803;42.676;26.348;2022-11-15T10:13:35;38.83;;;19.60;;
34565;SDS011;20803;42.676;26.348;2022-11-15T10:19:03;35.63;;;18.27;;
34565;SDS011;20803;42.676;26.348;2022-11-15T10:24:34;34.90;;;18.20;;
34565;SDS011;20803;42.676;26.348;2022-11-15T10:27:03;39.33;;;20.40;;
34565;SDS011;20803;42.676;26.348;2022-11-15T10:29:43;32.83;;;18.80;;
34565;SDS011;20803;42.676;26.348;2022-11-15T10:32:11;36.67;;;18.60;;
34565;SDS011;20803;42.676;26.348;2022-11-15T10:34:38;35.87;;;19.30;;
34565;SDS011;20803;42.676;26.348;2022-11-15T10:37:03;36.30;;;19.03;;
34565;SDS011;20803;42.676;26.348;2022-11-15T10:39:29;32.80;;;17.57;;
34565;SDS011;20803;42.676;26.348;2022-11-15T10:41:54;32.03;;;17.77;;
34565;SDS011;20803;42.676;26.348;2022-11-15T10:44:21;37.60;;;19.23;;
34565;SDS011;20803;42.676;26.348;2022-11-15T10:49:29;36.70;;;19.20;;
34565;SDS011;20803;42.676;26.348;2022-11-15T10:54:54;36.23;;;19.27;;
34565;SDS011;20803;42.676;26.348;2022-11-15T10:57:25;42.47;;;19.57;;
34565;SDS011;20803;42.676;26.348;2022-11-15T11:07:59;34.77;;;18.47;;
34565;SDS011;20803;42.676;26.348;2022-11-15T11:10:28;37.53;;;18.43;;
34565;SDS011;20803;42.676;26.348;2022-11-15T11:12:54;33.23;;;18.80;;
34565;SDS011;20803;42.676;26.348;2022-11-15T11:15:19;35.57;;;20.07;;
34565;SDS011;20803;42.676;26.348;2022-11-15T11:20:20;32.67;;;18.30;;
34565;SDS011;20803;42.676;26.348;2022-11-15T11:22:54;34.23;;;18.93;;
34565;SDS011;20803;42.676;26.348;2022-11-15T11:25:26;33.20;;;17.83;;
34565;SDS011;20803;42.676;26.348;2022-11-15T11:31:00;43.03;;;20.03;;
34565;SDS011;20803;42.676;26.348;2022-11-15T11:44:43;33.87;;;18.73;;
34565;SDS011;20803;42.676;26.348;2022-11-15T11:47:39;29.00;;;17.30;;
34565;SDS011;20803;42.676;26.348;2022-11-15T11:50:23;32.50;;;18.90;;
34565;SDS011;20803;42.676;26.348;2022-11-15T11:55:22;34.53;;;18.87;;
34565;SDS011;20803;42.676;26.348;2022-11-15T12:00:38;33.70;;;17.87;;
34565;SDS011;20803;42.676;26.348;2022-11-15T12:03:14;31.13;;;16.40;;
34565;SDS011;20803;42.676;26.348;2022-11-15T12:06:17;31.50;;;18.53;;
34565;SDS011;20803;42.676;26.348;2022-11-15T12:11:32;30.20;;;17.33;;
34565;SDS011;20803;42.676;26.348;2022-11-15T12:14:15;32.40;;;17.93;;
34565;SDS011;20803;42.676;26.348;2022-11-15T12:16:48;35.33;;;20.73;;
34565;SDS011;20803;42.676;26.348;2022-11-15T12:19:13;34.77;;;20.37;;
34565;SDS011;20803;42.676;26.348;2022-11-15T12:21:47;40.23;;;23.23;;
34565;SDS011;20803;42.676;26.348;2022-11-15T12:24:17;41.03;;;22.67;;
34565;SDS011;20803;42.676;26.348;2022-11-15T12:27:05;39.97;;;22.07;;
34565;SDS011;20803;42.676;26.348;2022-11-15T12:29:37;43.37;;;19.80;;
34565;SDS011;20803;42.676;26.348;2022-11-15T12:32:14;35.53;;;19.80;;
34565;SDS011;20803;42.676;26.348;2022-11-15T12:34:48;33.90;;;19.00;;
34565;SDS011;20803;42.676;26.348;2022-11-15T12:37:34;38.70;;;22.50;;
34565;SDS011;20803;42.676;26.348;2022-11-15T12:40:17;39.70;;;19.63;;
34565;SDS011;20803;42.676;26.348;2022-11-15T12:45:37;33.17;;;17.67;;
34565;SDS011;20803;42.676;26.348;2022-11-15T12:50:59;37.60;;;19.63;;
34565;SDS011;20803;42.676;26.348;2022-11-15T13:01:09;30.20;;;16.53;;
34565;SDS011;20803;42.676;26.348;2022-11-15T13:03:35;31.30;;;18.27;;
34565;SDS011;20803;42.676;26.348;2022-11-15T13:06:34;31.53;;;18.63;;
34565;SDS011;20803;42.676;26.348;2022-11-15T13:09:03;28.20;;;17.40;;
34565;SDS011;20803;42.676;26.348;2022-11-15T13:11:49;27.43;;;17.60;;
34565;SDS011;20803;42.676;26.348;2022-11-15T13:17:32;27.27;;;17.30;;
34565;SDS011;20803;42.676;26.348;2022-11-15T13:30:49;29.90;;;19.40;;
34565;SDS011;20803;42.676;26.348;2022-11-15T13:33:20;32.33;;;19.00;;
34565;SDS011;20803;42.676;26.348;2022-11-15T13:35:54;28.90;;;17.77;;
34565;SDS011;20803;42.676;26.348;2022-11-15T13:40:59;28.37;;;17.57;;
34565;SDS011;20803;42.676;26.348;2022-11-15T13:43:35;31.23;;;17.23;;
34565;SDS011;20803;42.676;26.348;2022-11-15T13:48:37;29.97;;;17.20;;
34565;SDS011;20803;42.676;26.348;2022-11-15T13:51:04;30.83;;;17.73;;
34565;SDS011;20803;42.676;26.348;2022-11-15T13:53:34;23.63;;;15.40;;
34565;SDS011;20803;42.676;26.348;2022-11-15T13:56:05;32.97;;;17.73;;
34565;SDS011;20803;42.676;26.348;2022-11-15T13:58:31;32.23;;;17.93;;
34565;SDS011;20803;42.676;26.348;2022-11-15T14:00:59;28.43;;;17.40;;
34565;SDS011;20803;42.676;26.348;2022-11-15T14:03:27;27.57;;;17.17;;
34565;SDS011;20803;42.676;26.348;2022-11-15T14:06:11;29.50;;;17.10;;
34565;SDS011;20803;42.676;26.348;2022-11-15T14:08:40;28.37;;;18.30;;
34565;SDS011;20803;42.676;26.348;2022-11-15T14:11:26;25.63;;;16.50;;
34565;SDS011;20803;42.676;26.348;2022-11-15T14:14:11;31.07;;;17.17;;
34565;SDS011;20803;42.676;26.348;2022-11-15T14:16:47;28.97;;;17.40;;
34565;SDS011;20803;42.676;26.348;2022-11-15T14:25:03;31.93;;;18.17;;
34565;SDS011;20803;42.676;26.348;2022-11-15T14:27:30;31.97;;;19.77;;
34565;SDS011;20803;42.676;26.348;2022-11-15T14:29:56;34.40;;;18.20;;
34565;SDS011;20803;42.676;26.348;2022-11-15T14:32:26;32.87;;;18.30;;
34565;SDS011;20803;42.676;26.348;2022-11-15T14:34:57;33.83;;;19.37;;
34565;SDS011;20803;42.676;26.348;2022-11-15T14:39:53;35.90;;;19.60;;
34565;SDS011;20803;42.676;26.348;2022-11-15T14:42:19;30.57;;;18.07;;
34565;SDS011;20803;42.676;26.348;2022-11-15T14:44:46;29.67;;;17.67;;
34565;SDS011;20803;42.676;26.348;2022-11-15T14:47:13;32.47;;;19.23;;
34565;SDS011;20803;42.676;26.348;2022-11-15T14:49:38;36.17;;;20.87;;
34565;SDS011;20803;42.676;26.348;2022-11-15T14:55:00;32.70;;;18.97;;
34565;SDS011;20803;42.676;26.348;2022-11-15T14:57:27;33.20;;;19.43;;
34565;SDS011;20803;42.676;26.348;2022-11-15T14:59:53;35.77;;;19.83;;
34565;SDS011;20803;42.676;26.348;2022-11-15T15:02:22;36.97;;;20.57;;
34565;SDS011;20803;42.676;26.348;2022-11-15T15:04:50;38.70;;;22.97;;
34565;SDS011;20803;42.676;26.348;2022-11-15T15:07:16;42.43;;;20.17;;
34565;SDS011;20803;42.676;26.348;2022-11-15T15:09:42;35.73;;;19.43;;
34565;SDS011;20803;42.676;26.348;2022-11-15T15:12:13;32.50;;;19.70;;
34565;SDS011;20803;42.676;26.348;2022-11-15T15:14:41;31.93;;;18.67;;
34565;SDS011;20803;42.676;26.348;2022-11-15T15:17:07;32.20;;;18.73;;
34565;SDS011;20803;42.676;26.348;2022-11-15T15:19:32;34.20;;;18.90;;
34565;SDS011;20803;42.676;26.348;2022-11-15T15:21:57;30.70;;;19.03;;
34565;SDS011;20803;42.676;26.348;2022-11-15T15:24:23;34.47;;;19.90;;
34565;SDS011;20803;42.676;26.348;2022-11-15T15:26:48;40.20;;;21.47;;
34565;SDS011;20803;42.676;26.348;2022-11-15T15:29:13;31.87;;;18.90;;
34565;SDS011;20803;42.676;26.348;2022-11-15T15:31:39;31.67;;;18.37;;
34565;SDS011;20803;42.676;26.348;2022-11-15T15:34:05;31.40;;;18.33;;
34565;SDS011;20803;42.676;26.348;2022-11-15T15:36:30;31.10;;;19.10;;
34565;SDS011;20803;42.676;26.348;2022-11-15T15:38:56;32.57;;;18.20;;
34565;SDS011;20803;42.676;26.348;2022-11-15T15:41:21;31.20;;;18.53;;
34565;SDS011;20803;42.676;26.348;2022-11-15T15:43:47;32.37;;;18.87;;
34565;SDS011;20803;42.676;26.348;2022-11-15T15:46:17;37.23;;;19.07;;
34565;SDS011;20803;42.676;26.348;2022-11-15T15:48:43;32.73;;;19.07;;
34565;SDS011;20803;42.676;26.348;2022-11-15T15:51:09;33.33;;;19.50;;
34565;SDS011;20803;42.676;26.348;2022-11-15T15:53:35;33.70;;;19.10;;
34565;SDS011;20803;42.676;26.348;2022-11-15T15:56:01;31.70;;;18.57;;
34565;SDS011;20803;42.676;26.348;2022-11-15T15:58:27;33.43;;;19.23;;
34565;SDS011;20803;42.676;26.348;2022-11-15T16:00:52;31.43;;;19.20;;
34565;SDS011;20803;42.676;26.348;2022-11-15T16:03:18;32.37;;;18.70;;
34565;SDS011;20803;42.676;26.348;2022-11-15T16:05:43;34.10;;;20.67;;
34565;SDS011;20803;42.676;26.348;2022-11-15T16:08:19;32.80;;;19.40;;
34565;SDS011;20803;42.676;26.348;2022-11-15T16:10:46;36.03;;;20.20;;
34565;SDS011;20803;42.676;26.348;2022-11-15T16:13:12;33.07;;;20.47;;
34565;SDS011;20803;42.676;26.348;2022-11-15T16:15:37;34.67;;;21.00;;
34565;SDS011;20803;42.676;26.348;2022-11-15T16:18:03;37.30;;;20.47;;
34565;SDS011;20803;42.676;26.348;2022-11-15T16:23:02;35.73;;;19.87;;
34565;SDS011;20803;42.676;26.348;2022-11-15T16:25:29;34.40;;;19.37;;
34565;SDS011;20803;42.676;26.348;2022-11-15T16:27:58;30.33;;;17.90;;
34565;SDS011;20803;42.676;26.348;2022-11-15T16:30:23;29.00;;;18.23;;
34565;SDS011;20803;42.676;26.348;2022-11-15T16:32:49;31.43;;;17.53;;